createdAt,value
2019-06-07T00:04:41.987Z,10.28
2019-06-07T00:24:51.235Z,9.28
2019-06-07T00:45:00.534Z,11.55
2019-06-07T01:05:10.053Z,16.57
2019-06-07T01:25:22.338Z,16.60
2019-06-07T01:45:31.131Z,14.78
2019-06-07T02:05:41.221Z,11.80
2019-06-07T02:25:50.905Z,12.50
2019-06-07T02:46:24.466Z,14.18
2019-06-07T03:06:15.393Z,10.08
2019-06-07T03:26:31.229Z,12.23
2019-06-07T03:46:42.965Z,10.08
2019-06-07T04:06:52.080Z,9.15
2019-06-07T04:27:00.816Z,10.45
2019-06-07T04:47:12.121Z,11.65
2019-06-07T05:07:21.758Z,10.00
2019-06-07T05:27:33.605Z,10.98
2019-06-07T05:47:50.171Z,9.18
2019-06-07T06:07:51.892Z,9.20
2019-06-07T06:28:11.690Z,8.65
2019-06-07T06:48:11.983Z,11.00
2019-06-07T07:08:23.979Z,10.32
2019-06-07T07:28:33.973Z,8.88
2019-06-07T07:48:43.581Z,8.00
2019-06-07T08:08:55.907Z,6.22
2019-06-07T08:29:04.861Z,9.60
2019-06-07T08:49:13.845Z,7.10
2019-06-07T09:09:24.577Z,8.10
2019-06-07T09:29:34.694Z,6.95
2019-06-07T09:49:45.175Z,8.40
2019-06-07T10:10:12.575Z,9.28
2019-06-07T10:30:08.649Z,10.93
2019-06-07T10:50:18.891Z,8.00
2019-06-07T11:10:47.141Z,12.65
2019-06-07T11:30:58.993Z,7.12
2019-06-07T11:51:12.665Z,7.03
2019-06-07T12:31:49.508Z,10.15
2019-06-07T12:51:58.008Z,10.58
2019-06-07T13:12:06.963Z,5.87
2019-06-07T13:32:17.908Z,7.60
2019-06-07T13:52:27.373Z,6.42
2019-06-07T14:12:37.826Z,7.55
2019-06-07T14:32:47.832Z,11.28
2019-06-07T14:52:56.832Z,9.55
2019-06-07T15:13:06.247Z,9.08
2019-06-07T15:33:16.030Z,9.10
2019-06-07T15:53:26.071Z,10.08
2019-06-07T16:13:36.630Z,12.07
2019-06-07T16:33:47.417Z,11.38
2019-06-07T16:53:57.401Z,10.60
2019-06-07T17:14:07.229Z,16.12
2019-06-07T17:34:16.974Z,15.72
2019-06-07T17:54:29.919Z,13.80
2019-06-07T18:14:42.022Z,19.40
2019-06-07T18:34:56.010Z,19.55
2019-06-07T18:55:08.070Z,17.73
2019-06-07T19:15:19.387Z,17.57
2019-06-07T19:35:34.367Z,17.35
2019-06-07T19:55:44.044Z,19.35
2019-06-07T20:15:55.113Z,21.20
2019-06-07T20:36:04.883Z,30.88
2019-06-07T20:56:16.967Z,42.27
2019-06-07T21:16:25.921Z,40.95
2019-06-07T21:36:34.583Z,67.32
2019-06-07T21:56:43.859Z,31.37
2019-06-07T22:16:55.820Z,40.67
2019-06-07T22:37:04.587Z,44.70
2019-06-07T22:57:19.640Z,38.53
2019-06-07T23:17:33.797Z,38.55
2019-06-07T23:37:46.019Z,36.83
2019-06-07T23:57:55.734Z,36.00
